Historyczne dane pomiarowe

Dodano dane terminowe – wersja testowa.

Dane z okresu 1951-2019

Wersja bazy: 1.34 [2019-03-16, lista zmian], aktualizacja planowana na 2019-04-15

Dane meteo z obszaru Polski uzyskane na podstawie danych udostępnionych przez Instytut Meteorologii i Gospodarki Wodnej – Państwowy Instytut Badawczy.

 

Wybierz Datę:    

       

TemperaturaWilgotnośćWiatrCiśnienieOpadyŚniegCzas trwania zjawisk
 Stacja t tx tn tng RH VA  wxwx mslp ppp RRR   cm mm wxwxwxwxwxwxwx
1999-08-14 17.7 24.9 12.3- 71.8- 2.3 2.7---- 0.0------------
1999-08-13 15.0 19.0 11.2- 75.5- 3.3 2.0---- 0.0------------
1999-08-12 16.4 20.0 14.6- 76.0- 6.3 1.7---- 0.0------------
1999-08-11 18.8 23.5 15.1- 88.5- 6.0 2.0---- 3.7------------
1999-08-10 19.9 26.0 16.3- 89.5- 6.7 2.3---- 4.7------------
1999-08-09 22.6 28.5 18.6- 78.5- 1.0 1.7---- 0.7------------
1999-08-08 22.8 28.6 18.5- 78.5- 2.3 3.7---- 0.0------------
1999-08-07 22.1 29.5 16.3- 84.5- 4.3 1.3---- 0.4------------
1999-08-06 22.2 27.5 16.3- 76.5- 2.3 1.0---- 0.0------------
1999-08-05 20.0 27.5 10.6- 68.3- 4.0 1.7---- 5.1------------
1999-08-04 17.3 25.2 10.6- 45.3- 2.0 1.7---- 0.0------------
1999-08-03 17.9 23.2 11.4- 73.0- 2.7 0.3---- 0.0------------
1999-08-02 19.0 24.2 13.2- 73.3- 3.3 2.0---- 0.0------------
1999-08-01 19.6 25.1 12.2- 67.3- 3.3 2.7---- 0.0------------
1999-07-31 19.6 25.9 12.4- 59.0- 4.0 3.0---- 0.0------------
1999-07-30 19.9 25.4 12.6- 61.5- 3.0 3.7---- 0.0------------
1999-07-29 19.1 24.5 13.6- 68.0- 3.0 3.3---- 0.0------------
1999-07-28 19.8 25.2 14.2- 65.0- 1.0 3.0---- 0.0------------
1999-07-27 20.1 25.3 16.6- 82.8- 4.3 4.3---- 0.0------------
1999-07-26 21.8 27.2 14.6- 76.3- 2.3 1.7---- 0.0------------
1999-07-25 18.4 24.4 12.5- 68.5- 1.0 1.3---- 0.0------------
1999-07-24 17.3 21.3 14.5- 75.3- 7.0 0.3---- 0.0------------
1999-07-23 15.9 20.9 13.6- 93.5- 8.0 1.3---- 3.4------------
1999-07-22 20.4 24.5 17.4- 65.3- 6.3 3.3---- 4.2------------
1999-07-21 22.9 28.8 17.6- 72.8- 3.0 4.3---- 4.3------------
1999-07-20 23.3 29.5 14.6- 56.0- 3.0 3.0---- 0.0------------
1999-07-19 21.5 28.5 12.1- 51.5- 0.7 2.0---- 0.0------------
1999-07-18 20.0 26.2 10.8- 55.0- 0.3 1.0---- 0.0------------
1999-07-17 18.3 24.5 11.6- 68.8- 1.7 2.0---- 0.0------------
1999-07-16 17.2 22.7 12.3- 75.5- 3.0 3.3---- 0.0------------
1999-07-15 17.0 20.9 14.9- 78.0- 6.3 3.7---- 0.0------------
1999-07-14 21.4 26.5 18.1- 86.5- 4.7 3.7---- 0.4------------
1999-07-13 21.2 27.2 16.6- 89.8- 6.3 3.3---- 25.4------------
1999-07-12 21.3 28.2 15.6- 80.0- 5.3 2.3---- 0.0------------
1999-07-11 19.3 22.3 15.5- 88.3- 5.0 1.7---- 3.4------------
1999-07-10 20.6 24.3 16.6- 82.0- 6.3 4.0---- 0.0------------
1999-07-09 18.0 21.3 14.4- 97.3- 7.7 1.7---- 0.2------------
1999-07-08 16.6 20.2 14.2- 99.0- 8.0 1.3---- 2.3------------
1999-07-07 22.5 29.5 19.2- 97.5- 8.0 3.3---- 18.5------------
1999-07-06 26.4 31.3 19.6- 65.3- 4.7 1.7---- 0.0------------
1999-07-05 25.8 32.0 17.6- 56.0- 0.0 3.3---- 0.0------------
1999-07-04 22.9 30.5 14.6- 61.8- 0.0 2.0---- 0.0------------
1999-07-03 21.0 26.0 15.6- 76.0- 2.0 1.7---- 0.0------------
1999-07-02 19.7 25.5 14.1- 79.5- 3.7 1.3---- 0.0------------
1999-07-01 20.1 22.5 17.6- 93.8- 4.7 0.7---- 11.2------------
1999-06-30 20.7 26.3 14.4- 86.5- 2.3 1.3---- 0.0------------
1999-06-29 19.7 24.8 15.1- 68.0- 1.7 0.7---- 0.0------------
1999-06-28 21.0 28.9 14.4- 77.8- 5.3 1.7---- 18.3------------
1999-06-27 20.2 27.5 10.4- 62.8- 2.0 1.7---- 0.0------------
1999-06-26 17.1 25.1 8.3- 64.8- 1.3 1.7---- 0.0------------
1999-06-25 13.1 19.9 6.7- 68.5- 1.7 1.3---- 0.0------------
1999-06-24 12.1 17.4 5.7- 99.0- 4.7 1.0---- 0.0------------
1999-06-23 9.5 12.2 7.7- 99.0- 7.0 3.3---- 2.3------------
1999-06-22 9.3 14.2 7.3- 96.3- 8.0 6.0---- 26.4------------
1999-06-21 17.0 22.9 13.5- 80.3- 8.0 4.0---- 35.5------------
1999-06-20 19.0 23.0 15.6- 81.5- 3.7 2.7---- 0.0------------
1999-06-19 15.2 17.9 12.6- 95.3- 7.7 2.3---- 0.5------------
1999-06-18 15.8 19.3 13.2- 95.0- 8.0 3.0---- 20.7------------
1999-06-17 18.2 22.0 15.6- 87.8- 8.0 2.7---- 2.2------------
1999-06-16 16.0 18.4 13.6- 97.0- 8.0 2.7---- 0.0------------
227.0 ms

 

Źródłem pochodzenia danych jest Instytut Meteorologii i Gospodarki Wodnej – Państwowy Instytut Badawczy. Dane Instytutu Meteorologii i Gospodarki Wodnej – Państwowego Instytutu Badawczego zostały przetworzone.

Dane źródłowe można odnaleźć na stronie https://dane.imgw.pl